Time;durP1;ratioP1;P1;durP2;ratioP2;P2;SDS_P1;SDS_P2;PMS_P1;PMS_P2;Temp;Humidity;BMP_temperature;BMP_pressure;BME280_temperature;BME280_humidity;BME280_pressure;Samples;Min_cycle;Max_cycle;Signal;HPM_P1;HPM_P2
2023/02/28 00:00:09;;;;;;;0.30;0.30;;;-1.70;95.10;;;;;;5052794;28;20421;-75
2023/02/28 00:02:37;;;;;;;0.30;0.30;;;-1.70;95.10;;;;;;5052414;28;20818;-75
2023/02/28 00:05:04;;;;;;;0.50;0.50;;;-1.70;95.30;;;;;;5052399;28;20942;-75
2023/02/28 00:07:31;;;;;;;0.30;0.30;;;-1.70;95.50;;;;;;5052712;28;20800;-75
2023/02/28 00:09:58;;;;;;;0.40;0.40;;;-1.80;95.50;;;;;;5052713;28;20432;-75
2023/02/28 00:12:25;;;;;;;0.30;0.30;;;-1.80;95.80;;;;;;5052665;28;20428;-75
2023/02/28 00:14:53;;;;;;;0.30;0.30;;;-1.80;95.80;;;;;;5054455;28;20445;-75
2023/02/28 00:17:21;;;;;;;0.30;0.30;;;-1.80;96.20;;;;;;5056536;28;20445;-75
2023/02/28 00:19:49;;;;;;;0.30;0.30;;;-1.80;96.20;;;;;;5056457;28;20415;-75
2023/02/28 00:22:16;;;;;;;0.30;0.30;;;-1.80;96.10;;;;;;5055856;28;20454;-75
2023/02/28 00:24:43;;;;;;;0.30;0.30;;;-1.80;96.20;;;;;;5056167;28;20473;-75
2023/02/28 00:27:10;;;;;;;0.30;0.20;;;-1.90;96.40;;;;;;5056035;28;20472;-75
2023/02/28 00:29:37;;;;;;;0.33;0.27;;;-1.90;97.00;;;;;;5056049;28;20421;-75
2023/02/28 00:32:06;;;;;;;0.40;0.40;;;-1.90;96.70;;;;;;5056291;28;20417;-75
2023/02/28 00:34:37;;;;;;;0.43;0.43;;;-1.90;96.90;;;;;;5055902;28;20521;-76
2023/02/28 00:37:04;;;;;;;0.43;0.43;;;-1.90;97.10;;;;;;5056160;28;20561;-75
2023/02/28 00:39:31;;;;;;;0.50;0.50;;;-1.90;97.40;;;;;;5069546;28;20481;-75
2023/02/28 00:41:58;;;;;;;0.30;0.27;;;-2.00;97.40;;;;;;5075868;28;20453;-75
2023/02/28 00:44:24;;;;;;;0.30;0.30;;;-2.00;97.90;;;;;;5075835;28;20449;-75
2023/02/28 00:46:53;;;;;;;0.37;0.37;;;-2.00;97.90;;;;;;5075396;28;20442;-75
2023/02/28 00:49:21;;;;;;;0.30;0.30;;;-2.00;98.10;;;;;;5075696;28;20794;-75
2023/02/28 00:51:48;;;;;;;0.30;0.30;;;-2.00;98.60;;;;;;5075326;28;20949;-75
2023/02/28 00:54:15;;;;;;;0.40;0.40;;;-2.10;98.40;;;;;;5075348;28;20449;-75
2023/02/28 00:56:42;;;;;;;0.30;0.20;;;-2.10;98.60;;;;;;5075461;28;20460;-75
2023/02/28 00:59:09;;;;;;;0.70;0.50;;;-2.10;98.90;;;;;;5075239;28;20940;-75
2023/02/28 01:01:36;;;;;;;0.40;0.40;;;-2.10;99.00;;;;;;5075450;28;20449;-75
2023/02/28 01:04:03;;;;;;;0.30;0.30;;;-2.10;99.20;;;;;;5075162;28;20806;-75
2023/02/28 01:06:31;;;;;;;0.30;0.30;;;-2.10;99.40;;;;;;5075385;28;20449;-75
2023/02/28 01:08:58;;;;;;;0.30;0.30;;;-2.10;99.50;;;;;;5075861;28;20822;-75
2023/02/28 01:11:25;;;;;;;0.30;0.30;;;-2.20;99.80;;;;;;5075341;28;20445;-75
2023/02/28 01:13:52;;;;;;;0.30;0.30;;;-2.10;99.90;;;;;;5075245;28;20438;-75
2023/02/28 01:16:19;;;;;;;0.50;0.50;;;-2.20;99.90;;;;;;5074841;28;20459;-75
2023/02/28 01:18:46;;;;;;;0.63;0.63;;;-2.20;99.90;;;;;;5075102;28;20444;-75
2023/02/28 01:21:14;;;;;;;1.03;0.73;;;-2.20;99.90;;;;;;5075082;28;20441;-75
2023/02/28 01:23:43;;;;;;;0.30;0.30;;;-2.20;99.90;;;;;;5075053;28;20493;-75
2023/02/28 01:26:12;;;;;;;0.30;0.30;;;-2.30;99.90;;;;;;5074293;28;20449;-75
2023/02/28 01:28:39;;;;;;;0.30;0.30;;;-2.30;99.90;;;;;;5074906;28;20466;-75
2023/02/28 01:31:06;;;;;;;0.30;0.30;;;-2.30;99.90;;;;;;5074925;28;20438;-76
2023/02/28 01:33:33;;;;;;;0.30;0.30;;;-2.30;99.90;;;;;;5074856;28;20563;-75
2023/02/28 01:36:01;;;;;;;0.40;0.40;;;-2.30;99.90;;;;;;5074721;28;20492;-75
2023/02/28 01:38:28;;;;;;;0.40;0.30;;;-2.30;99.90;;;;;;5074738;28;20456;-75
2023/02/28 01:40:56;;;;;;;0.43;0.43;;;-2.40;99.90;;;;;;5074712;28;20432;-75
2023/02/28 01:43:25;;;;;;;0.30;0.30;;;-2.40;99.90;;;;;;5074675;28;20445;-75
2023/02/28 01:45:52;;;;;;;0.50;0.50;;;-2.40;99.90;;;;;;5074319;28;20809;-75
2023/02/28 01:48:21;;;;;;;1.90;0.50;;;-2.40;99.90;;;;;;5074156;28;20984;-76
2023/02/28 01:50:49;;;;;;;0.30;0.30;;;-2.40;99.90;;;;;;5074517;28;20442;-75
2023/02/28 01:53:21;;;;;;;0.30;0.30;;;-2.50;99.90;;;;;;5074450;28;20424;-75
2023/02/28 01:55:52;;;;;;;0.40;0.40;;;-2.50;99.90;;;;;;5074351;28;20465;-75
2023/02/28 01:58:20;;;;;;;0.30;0.30;;;-2.50;99.90;;;;;;5074346;28;20469;-75
2023/02/28 02:00:47;;;;;;;0.30;0.30;;;-2.40;99.90;;;;;;5074316;28;20420;-75
2023/02/28 02:03:18;;;;;;;0.30;0.30;;;-2.40;99.90;;;;;;5074278;28;20449;-75
2023/02/28 02:05:47;;;;;;;0.33;0.30;;;-2.40;99.90;;;;;;5074227;28;20408;-75
2023/02/28 02:08:17;;;;;;;0.67;0.67;;;-2.40;99.90;;;;;;5074007;28;20463;-75
2023/02/28 02:10:47;;;;;;;0.30;0.30;;;-2.40;99.90;;;;;;5074008;28;20434;-75
2023/02/28 02:13:53;;;;;;;0.30;0.30;;;-2.40;99.90;;;;;;5074133;28;20412;-75
2023/02/28 02:16:34;;;;;;;0.30;0.30;;;-2.40;99.90;;;;;;5073618;28;20829;-75
2023/02/28 02:19:16;;;;;;;0.30;0.30;;;-2.40;99.90;;;;;;5074062;28;20770;-75
2023/02/28 02:22:10;;;;;;;0.30;0.20;;;-2.40;99.90;;;;;;5073922;28;20433;-75
2023/02/28 02:25:10;;;;;;;0.30;0.30;;;-2.40;99.90;;;;;;5073912;28;20401;-75
2023/02/28 02:27:58;;;;;;;0.30;0.30;;;-2.50;99.90;;;;;;5068498;28;20477;-75
2023/02/28 02:30:44;;;;;;;0.30;0.30;;;-2.50;99.90;;;;;;5073895;28;20404;-75
2023/02/28 02:33:29;;;;;;;0.30;0.30;;;-2.50;99.90;;;;;;5073811;28;20411;-76
2023/02/28 02:36:05;;;;;;;0.83;0.80;;;-2.50;99.90;;;;;;5073495;28;20958;-75
2023/02/28 02:38:36;;;;;;;0.60;0.60;;;-2.50;99.90;;;;;;5073449;28;20460;-75
2023/02/28 02:41:09;;;;;;;0.30;0.30;;;-2.40;99.90;;;;;;5073673;28;20404;-75
2023/02/28 02:43:41;;;;;;;0.30;0.30;;;-2.50;99.90;;;;;;5073667;28;20429;-75
2023/02/28 02:46:14;;;;;;;0.30;0.30;;;-2.40;99.90;;;;;;5073607;28;20441;-76
2023/02/28 02:48:43;;;;;;;0.53;0.53;;;-2.40;99.90;;;;;;5073558;28;20461;-75
2023/02/28 02:51:15;;;;;;;0.30;0.30;;;-2.40;99.90;;;;;;5073281;28;20456;-76
2023/02/28 02:53:46;;;;;;;0.30;0.30;;;-2.40;99.90;;;;;;5073667;28;20504;-75
2023/02/28 02:56:14;;;;;;;0.77;0.77;;;-2.40;99.90;;;;;;5073588;28;20536;-75
2023/02/28 02:58:44;;;;;;;0.30;0.30;;;-2.40;99.90;;;;;;5073105;28;20982;-76
2023/02/28 03:01:16;;;;;;;0.40;0.40;;;-2.40;99.90;;;;;;5073413;28;20420;-76
2023/02/28 03:03:44;;;;;;;0.50;0.50;;;-2.40;99.90;;;;;;5073350;28;20524;-76
2023/02/28 03:06:12;;;;;;;0.40;0.40;;;-2.40;99.90;;;;;;5073216;28;20545;-75
2023/02/28 03:08:39;;;;;;;0.50;0.50;;;-2.40;99.90;;;;;;5073246;28;20801;-76
2023/02/28 03:11:14;;;;;;;0.60;0.60;;;-2.40;99.90;;;;;;5073006;28;20455;-76
2023/02/28 03:14:11;;;;;;;0.30;0.30;;;-2.40;99.90;;;;;;5073328;28;20404;-76
2023/02/28 03:17:07;;;;;;;0.30;0.30;;;-2.30;99.90;;;;;;5057394;28;20481;-76
2023/02/28 03:19:52;;;;;;;0.30;0.30;;;-2.20;99.90;;;;;;5060274;28;20440;-76
2023/02/28 03:22:34;;;;;;;0.40;0.40;;;-2.20;99.90;;;;;;5073235;28;20426;-76
2023/02/28 03:25:07;;;;;;;0.53;0.40;;;-2.20;99.90;;;;;;5073254;28;20441;-76
2023/02/28 03:27:40;;;;;;;0.30;0.30;;;-2.20;99.90;;;;;;5073181;28;20436;-76
2023/02/28 03:30:11;;;;;;;0.30;0.30;;;-2.20;99.90;;;;;;5073322;28;20457;-77
2023/02/28 03:32:43;;;;;;;0.30;0.30;;;-2.20;99.90;;;;;;5073112;28;20435;-77
2023/02/28 03:35:15;;;;;;;0.30;0.30;;;-2.20;99.90;;;;;;5073139;28;20422;-76
2023/02/28 03:37:44;;;;;;;0.30;0.30;;;-2.20;99.90;;;;;;5072473;28;20468;-76
2023/02/28 03:40:14;;;;;;;0.30;0.30;;;-2.20;99.90;;;;;;5073054;28;20449;-76
2023/02/28 03:42:45;;;;;;;1.27;0.67;;;-2.20;99.90;;;;;;5073065;28;20430;-76
2023/02/28 03:45:15;;;;;;;0.30;0.30;;;-2.20;99.90;;;;;;5073070;28;20444;-76
2023/02/28 03:47:47;;;;;;;0.30;0.27;;;-2.20;99.90;;;;;;5072623;28;20959;-74
2023/02/28 03:50:19;;;;;;;0.40;0.40;;;-2.20;99.90;;;;;;5075497;28;20408;-74
2023/02/28 03:52:51;;;;;;;0.30;0.30;;;-2.10;99.90;;;;;;5076778;28;20433;-75
2023/02/28 03:55:19;;;;;;;0.30;0.30;;;-2.00;99.90;;;;;;5076441;28;20905;-75
2023/02/28 03:57:57;;;;;;;0.30;0.30;;;-2.00;99.90;;;;;;5076537;28;20467;-75
2023/02/28 04:00:30;;;;;;;0.33;0.33;;;-2.00;99.90;;;;;;5076913;28;20400;-75
2023/02/28 04:02:57;;;;;;;0.30;0.30;;;-2.00;99.90;;;;;;5076299;28;20888;-75
2023/02/28 04:05:25;;;;;;;2.23;1.00;;;-2.00;99.90;;;;;;5076521;28;20446;-75
2023/02/28 04:07:53;;;;;;;0.30;0.30;;;-2.00;99.90;;;;;;5076406;28;20484;-75
2023/02/28 04:10:20;;;;;;;0.30;0.30;;;-2.10;99.90;;;;;;5076441;28;20861;-75
2023/02/28 04:12:47;;;;;;;0.30;0.30;;;-2.10;99.90;;;;;;5076085;28;20985;-75
2023/02/28 04:15:14;;;;;;;0.33;0.33;;;-2.10;99.90;;;;;;5076645;28;20420;-75
2023/02/28 04:17:41;;;;;;;0.70;0.47;;;-2.10;99.90;;;;;;5076188;28;20464;-75
2023/02/28 04:20:10;;;;;;;0.70;0.50;;;-2.20;99.90;;;;;;5076278;28;20460;-75
2023/02/28 04:22:37;;;;;;;0.40;0.40;;;-2.10;99.90;;;;;;5076503;28;20416;-75
2023/02/28 04:25:07;;;;;;;0.60;0.60;;;-2.10;99.90;;;;;;5076220;28;20517;-74
2023/02/28 04:27:34;;;;;;;0.50;0.50;;;-2.00;99.90;;;;;;5076085;28;20447;-75
2023/02/28 04:30:01;;;;;;;0.30;0.30;;;-2.00;99.90;;;;;;5076080;28;20427;-75
2023/02/28 04:32:27;;;;;;;0.63;0.63;;;-2.10;99.90;;;;;;5075988;28;20428;-75
2023/02/28 04:34:54;;;;;;;0.30;0.30;;;-2.10;99.90;;;;;;5075705;28;20920;-75
2023/02/28 04:37:21;;;;;;;0.30;0.30;;;-2.10;99.90;;;;;;5075610;28;20559;-75
2023/02/28 04:39:47;;;;;;;0.50;0.50;;;-2.10;99.90;;;;;;5076005;28;20438;-75
2023/02/28 04:42:16;;;;;;;0.30;0.30;;;-2.00;99.90;;;;;;5075597;28;20420;-75
2023/02/28 04:44:42;;;;;;;0.30;0.30;;;-2.00;99.90;;;;;;5075734;28;20949;-75
2023/02/28 04:47:09;;;;;;;0.30;0.30;;;-2.00;99.90;;;;;;5075420;28;20440;-75
2023/02/28 04:49:36;;;;;;;0.30;0.30;;;-2.00;99.90;;;;;;5075750;28;20424;-75
2023/02/28 04:52:03;;;;;;;0.43;0.43;;;-2.00;99.90;;;;;;5075427;28;20960;-75
2023/02/28 04:54:30;;;;;;;0.37;0.37;;;-1.90;99.90;;;;;;5075616;28;20472;-75
2023/02/28 04:56:57;;;;;;;0.30;0.30;;;-1.90;99.90;;;;;;5075527;28;20481;-75
2023/02/28 04:59:25;;;;;;;0.30;0.30;;;-1.90;99.90;;;;;;5075302;28;20445;-75
2023/02/28 05:01:52;;;;;;;0.40;0.40;;;-2.00;99.90;;;;;;5074384;28;20427;-75
2023/02/28 05:04:18;;;;;;;0.30;0.20;;;-1.90;99.90;;;;;;5075474;28;20423;-75
2023/02/28 05:06:45;;;;;;;0.30;0.30;;;-2.00;99.90;;;;;;5075343;28;20420;-75
2023/02/28 05:09:12;;;;;;;0.77;0.77;;;-2.00;99.90;;;;;;5075415;28;20803;-75
2023/02/28 05:11:40;;;;;;;0.30;0.30;;;-2.00;99.90;;;;;;5075321;28;20460;-75
2023/02/28 05:14:10;;;;;;;0.30;0.30;;;-2.00;99.90;;;;;;5075213;28;20420;-75
2023/02/28 05:16:38;;;;;;;1.83;1.00;;;-2.00;99.90;;;;;;5075321;28;20448;-75
2023/02/28 05:19:05;;;;;;;0.60;0.60;;;-2.00;99.90;;;;;;5074883;28;20965;-75
2023/02/28 05:21:34;;;;;;;0.30;0.30;;;-2.00;99.90;;;;;;5075157;28;20454;-75
2023/02/28 05:24:02;;;;;;;0.50;0.50;;;-2.00;99.90;;;;;;5074771;28;20949;-75
2023/02/28 05:26:30;;;;;;;0.40;0.40;;;-2.00;99.90;;;;;;5075068;28;20826;-75
2023/02/28 05:28:57;;;;;;;0.30;0.20;;;-2.00;99.90;;;;;;5074981;28;20451;-74
2023/02/28 05:31:24;;;;;;;0.93;0.93;;;-2.00;99.90;;;;;;5074620;28;20816;-75
2023/02/28 05:33:52;;;;;;;2.10;1.23;;;-2.00;99.90;;;;;;5075040;28;20424;-75
2023/02/28 05:36:19;;;;;;;0.30;0.30;;;-2.00;99.90;;;;;;5074897;28;20903;-75
2023/02/28 05:38:47;;;;;;;0.40;0.40;;;-2.00;99.90;;;;;;5074491;28;20460;-75
2023/02/28 05:41:14;;;;;;;0.30;0.30;;;-1.90;99.90;;;;;;5074704;28;20481;-75
2023/02/28 05:43:41;;;;;;;0.30;0.30;;;-2.00;99.90;;;;;;5074372;28;20441;-75
2023/02/28 05:46:09;;;;;;;0.30;0.30;;;-2.00;99.90;;;;;;5074707;28;20426;-75
2023/02/28 05:48:38;;;;;;;0.30;0.30;;;-2.00;99.90;;;;;;5074509;28;20468;-75
2023/02/28 05:51:07;;;;;;;0.30;0.30;;;-1.90;99.90;;;;;;5074372;28;20449;-75
2023/02/28 05:53:34;;;;;;;0.30;0.30;;;-1.90;99.90;;;;;;5074768;28;20493;-75
2023/02/28 05:56:01;;;;;;;0.30;0.30;;;-1.90;99.90;;;;;;5074444;28;20457;-75
2023/02/28 05:58:30;;;;;;;0.40;0.40;;;-2.00;99.90;;;;;;5074244;28;20488;-75
2023/02/28 06:00:57;;;;;;;0.30;0.30;;;-2.00;99.90;;;;;;5074493;28;20420;-75
2023/02/28 06:03:24;;;;;;;0.40;0.40;;;-2.00;99.90;;;;;;5074285;28;20449;-75
2023/02/28 06:05:52;;;;;;;0.30;0.30;;;-1.90;99.90;;;;;;5073998;28;20768;-75
2023/02/28 06:08:20;;;;;;;0.37;0.37;;;-1.90;99.90;;;;;;5074164;28;20459;-75
2023/02/28 06:10:47;;;;;;;0.30;0.30;;;-1.90;99.90;;;;;;5074175;28;20499;-75
2023/02/28 06:13:14;;;;;;;0.70;0.70;;;-1.90;99.90;;;;;;5073901;28;20446;-75
2023/02/28 06:15:40;;;;;;;0.30;0.30;;;-2.00;99.90;;;;;;5074233;28;20536;-75
2023/02/28 06:18:08;;;;;;;0.40;0.40;;;-2.00;99.90;;;;;;5073615;28;20480;-75
2023/02/28 06:20:36;;;;;;;1.17;1.17;;;-2.00;99.90;;;;;;5073996;28;20768;-75
2023/02/28 06:23:02;;;;;;;0.40;0.40;;;-2.00;99.90;;;;;;5074164;28;20453;-76
2023/02/28 06:25:30;;;;;;;0.30;0.30;;;-2.00;99.90;;;;;;5073876;28;20428;-75
2023/02/28 06:27:57;;;;;;;0.40;0.40;;;-1.90;99.90;;;;;;5073790;28;20477;-77
2023/02/28 06:30:26;;;;;;;0.37;0.37;;;-1.90;99.90;;;;;;5074103;28;20420;-78
2023/02/28 06:32:54;;;;;;;0.50;0.50;;;-1.90;99.90;;;;;;5073470;28;20545;-77
2023/02/28 06:35:21;;;;;;;0.30;0.30;;;-1.90;99.90;;;;;;5073753;28;20443;-77
2023/02/28 06:37:47;;;;;;;0.30;0.30;;;-1.80;99.90;;;;;;5073149;28;20467;-77
2023/02/28 06:40:14;;;;;;;0.40;0.40;;;-1.90;99.90;;;;;;5073725;28;20495;-77
2023/02/28 06:42:43;;;;;;;0.40;0.40;;;-1.90;99.90;;;;;;5073642;28;20423;-78
2023/02/28 06:45:10;;;;;;;0.30;0.30;;;-1.90;99.90;;;;;;5073660;28;20424;-78
2023/02/28 06:47:38;;;;;;;0.30;0.30;;;-1.90;99.90;;;;;;5073222;28;20465;-77
2023/02/28 06:50:06;;;;;;;0.30;0.30;;;-1.90;99.90;;;;;;5073621;28;20449;-77
2023/02/28 06:52:32;;;;;;;0.63;0.50;;;-1.90;99.90;;;;;;5073515;28;20428;-77
2023/02/28 06:55:00;;;;;;;0.50;0.50;;;-1.90;99.90;;;;;;5073532;28;20432;-78
2023/02/28 06:57:30;;;;;;;0.40;0.40;;;-1.90;99.90;;;;;;5073350;28;20496;-77
2023/02/28 06:59:59;;;;;;;0.30;0.30;;;-1.80;99.90;;;;;;5073564;28;20822;-77
2023/02/28 07:02:25;;;;;;;0.30;0.30;;;-1.90;99.90;;;;;;5073115;28;20948;-78
2023/02/28 07:04:52;;;;;;;2.20;0.60;;;-1.80;99.90;;;;;;5073420;28;20495;-78
2023/02/28 07:07:20;;;;;;;0.40;0.40;;;-1.80;99.90;;;;;;5073318;28;20972;-77
2023/02/28 07:09:47;;;;;;;0.30;0.30;;;-1.70;99.90;;;;;;5073229;28;20931;-77
2023/02/28 07:12:14;;;;;;;0.30;0.30;;;-1.70;99.90;;;;;;5073019;28;20923;-78
2023/02/28 07:14:40;;;;;;;0.30;0.30;;;-1.60;99.90;;;;;;5072960;28;20912;-77
2023/02/28 07:17:11;;;;;;;0.33;0.33;;;-1.60;99.90;;;;;;5073404;28;20464;-77
2023/02/28 07:19:38;;;;;;;0.60;0.60;;;-1.50;99.90;;;;;;5073301;28;20461;-77
2023/02/28 07:22:05;;;;;;;0.47;0.47;;;-1.50;99.90;;;;;;5073425;28;20420;-77
2023/02/28 07:24:32;;;;;;;0.30;0.30;;;-1.50;99.90;;;;;;5074419;28;20433;-78
2023/02/28 07:26:59;;;;;;;0.60;0.60;;;-1.50;99.90;;;;;;5077275;28;20436;-78
2023/02/28 07:29:27;;;;;;;0.37;0.37;;;-1.40;99.90;;;;;;5077256;28;20424;-77
2023/02/28 07:31:54;;;;;;;1.00;0.77;;;-1.40;99.90;;;;;;5077533;28;20407;-77
2023/02/28 07:34:22;;;;;;;0.30;0.20;;;-1.40;99.90;;;;;;5076940;28;20449;-78
2023/02/28 07:36:53;;;;;;;0.30;0.30;;;-1.30;99.90;;;;;;5077120;28;20427;-77
2023/02/28 07:39:20;;;;;;;0.30;0.30;;;-1.40;99.90;;;;;;5076772;28;20495;-77
2023/02/28 07:41:47;;;;;;;1.80;1.70;;;-1.30;99.90;;;;;;5077104;28;20452;-78
2023/02/28 07:44:14;;;;;;;4.73;0.70;;;-1.30;99.90;;;;;;5076655;28;20550;-77
2023/02/28 07:46:41;;;;;;;0.30;0.30;;;-1.30;99.90;;;;;;5076879;28;20425;-77
2023/02/28 07:49:08;;;;;;;0.30;0.30;;;-1.20;99.90;;;;;;5076651;28;20431;-77
2023/02/28 07:51:37;;;;;;;0.30;0.30;;;-1.20;99.90;;;;;;5075650;28;20512;-77
2023/02/28 07:54:05;;;;;;;0.60;0.60;;;-1.20;99.90;;;;;;5076149;28;20481;-77
2023/02/28 07:56:32;;;;;;;0.50;0.50;;;-1.10;99.90;;;;;;5075219;28;20454;-76
2023/02/28 07:58:59;;;;;;;0.30;0.30;;;-1.00;99.90;;;;;;5076379;28;20459;-78
2023/02/28 08:01:26;;;;;;;1.17;0.63;;;-1.00;99.90;;;;;;5076439;28;20944;-78
2023/02/28 08:03:54;;;;;;;3.10;0.63;;;-1.10;99.90;;;;;;5076645;28;20449;-78
2023/02/28 08:06:23;;;;;;;0.30;0.30;;;-1.00;99.90;;;;;;5076916;28;20831;-78
2023/02/28 08:08:52;;;;;;;0.60;0.60;;;-1.10;99.90;;;;;;5076969;28;20465;-78
2023/02/28 08:11:19;;;;;;;0.30;0.30;;;-1.00;99.90;;;;;;5076551;28;20420;-78
2023/02/28 08:13:47;;;;;;;1.80;1.27;;;-1.00;99.90;;;;;;5076774;28;20478;-78
2023/02/28 08:16:17;;;;;;;0.30;0.30;;;-1.00;99.90;;;;;;5077209;28;20485;-78
2023/02/28 08:18:44;;;;;;;3.17;0.70;;;-0.90;99.90;;;;;;5076290;28;20481;-77
2023/02/28 08:21:11;;;;;;;0.30;0.30;;;-0.80;99.90;;;;;;5076074;28;20427;-77
2023/02/28 08:23:38;;;;;;;0.30;0.30;;;-0.80;99.90;;;;;;5076378;28;20420;-77
2023/02/28 08:26:06;;;;;;;0.60;0.60;;;-0.80;99.90;;;;;;5075959;28;20474;-78
2023/02/28 08:28:33;;;;;;;0.30;0.30;;;-0.80;99.90;;;;;;5075934;28;20951;-77
2023/02/28 08:31:00;;;;;;;0.30;0.30;;;-0.80;99.90;;;;;;5076167;28;20452;-79
2023/02/28 08:33:28;;;;;;;0.30;0.27;;;-0.90;99.90;;;;;;5076300;28;20449;-78
2023/02/28 08:35:56;;;;;;;0.37;0.37;;;-0.80;99.90;;;;;;5076941;28;20847;-78
2023/02/28 08:38:23;;;;;;;0.40;0.40;;;-0.80;99.90;;;;;;5076047;28;21014;-79
2023/02/28 08:40:49;;;;;;;0.30;0.30;;;-0.70;99.90;;;;;;5078675;28;20431;-79
2023/02/28 08:43:17;;;;;;;0.50;0.50;;;-0.80;99.90;;;;;;5078391;28;20903;-77
2023/02/28 08:45:47;;;;;;;0.33;0.33;;;-0.80;99.90;;;;;;5087431;28;20801;-77
2023/02/28 08:48:14;;;;;;;0.40;0.40;;;-0.70;99.90;;;;;;5089050;28;20431;-76
2023/02/28 08:50:41;;;;;;;1.03;1.03;;;-0.60;99.90;;;;;;5089596;28;20517;-77
2023/02/28 08:53:08;;;;;;;1.67;1.57;;;-0.60;99.90;;;;;;5075701;28;20449;-77
2023/02/28 08:55:34;;;;;;;0.50;0.50;;;-0.70;99.90;;;;;;5075794;28;20423;-78
2023/02/28 08:58:02;;;;;;;0.57;0.57;;;-0.70;99.90;;;;;;5075335;28;20831;-77
2023/02/28 09:00:30;;;;;;;0.30;0.30;;;-0.60;99.90;;;;;;5075361;28;20480;-77
2023/02/28 09:02:57;;;;;;;0.30;0.30;;;-0.60;99.90;;;;;;5075610;28;20434;-78
2023/02/28 09:05:23;;;;;;;0.30;0.30;;;-0.60;99.90;;;;;;5075203;28;20474;-78
2023/02/28 09:07:50;;;;;;;0.40;0.40;;;-0.50;99.90;;;;;;5075414;28;20484;-77
2023/02/28 09:10:17;;;;;;;0.30;0.30;;;-0.40;99.90;;;;;;5075377;28;20783;-77
2023/02/28 09:12:46;;;;;;;1.23;0.77;;;-0.40;99.90;;;;;;5075344;28;20441;-78
2023/02/28 09:15:13;;;;;;;1.63;0.73;;;-0.40;99.90;;;;;;5075247;28;20452;-78
2023/02/28 09:17:41;;;;;;;1.63;0.90;;;-0.40;99.90;;;;;;5075173;28;20488;-77
2023/02/28 09:20:10;;;;;;;0.60;0.60;;;-0.40;99.90;;;;;;5075251;28;20469;-77
2023/02/28 09:22:36;;;;;;;0.67;0.67;;;-0.40;99.90;;;;;;5075188;28;20415;-77
2023/02/28 09:25:04;;;;;;;0.40;0.40;;;-0.40;99.90;;;;;;5075092;28;20436;-77
2023/02/28 09:27:30;;;;;;;0.30;0.30;;;-0.40;99.90;;;;;;5075025;28;20451;-78
2023/02/28 09:29:57;;;;;;;0.40;0.40;;;-0.30;99.90;;;;;;5074949;28;20536;-77
2023/02/28 09:32:24;;;;;;;0.60;0.60;;;-0.30;99.90;;;;;;5074919;28;20782;-77
2023/02/28 09:34:52;;;;;;;0.30;0.30;;;-0.10;99.90;;;;;;5074915;28;20457;-77
2023/02/28 09:37:18;;;;;;;0.60;0.60;;;0.00;99.90;;;;;;5074496;28;20469;-77
2023/02/28 09:39:45;;;;;;;0.30;0.30;;;0.00;99.90;;;;;;5074475;28;20434;-77
2023/02/28 09:42:21;;;;;;;0.30;0.30;;;-0.10;99.90;;;;;;5074763;28;20452;-77
2023/02/28 09:44:49;;;;;;;0.30;0.30;;;-0.10;99.90;;;;;;5075525;28;20461;-78
2023/02/28 09:47:26;;;;;;;0.30;0.30;;;-0.10;99.90;;;;;;5073971;28;20484;-78
2023/02/28 09:49:58;;;;;;;0.57;0.57;;;-0.10;99.90;;;;;;5074813;28;20408;-78
2023/02/28 09:52:30;;;;;;;2.80;0.67;;;0.00;99.90;;;;;;5074226;28;20913;-78
2023/02/28 09:54:57;;;;;;;0.30;0.30;;;0.10;99.90;;;;;;5074351;28;20441;-78
2023/02/28 09:57:34;;;;;;;0.30;0.30;;;0.10;99.90;;;;;;5074374;28;20469;-78
2023/02/28 10:00:14;;;;;;;0.57;0.57;;;0.20;99.90;;;;;;5074433;28;20430;-79
2023/02/28 10:02:53;;;;;;;0.30;0.30;;;0.30;99.90;;;;;;5074382;28;20449;-79
2023/02/28 10:05:24;;;;;;;0.30;0.30;;;0.30;99.90;;;;;;5074935;28;20437;-78
2023/02/28 10:08:04;;;;;;;0.63;0.60;;;0.30;99.90;;;;;;5074245;28;20985;-80
2023/02/28 10:10:38;;;;;;;0.40;0.40;;;0.40;99.90;;;;;;5074702;28;20438;-79
2023/02/28 10:13:07;;;;;;;1.27;1.27;;;0.40;99.90;;;;;;5073918;28;20430;-79
2023/02/28 10:15:36;;;;;;;0.70;0.50;;;0.40;99.90;;;;;;5073987;28;20424;-80
2023/02/28 10:18:06;;;;;;;0.30;0.30;;;0.40;99.90;;;;;;5073625;28;20842;-77
2023/02/28 10:20:38;;;;;;;0.37;0.30;;;0.50;99.90;;;;;;5074047;28;20476;-77
2023/02/28 10:23:12;;;;;;;0.30;0.30;;;0.50;99.90;;;;;;5074003;28;20453;-78
2023/02/28 10:25:40;;;;;;;0.70;0.70;;;0.50;99.90;;;;;;5073632;28;20429;-78
2023/02/28 10:28:12;;;;;;;0.37;0.37;;;0.60;99.90;;;;;;5073520;28;20453;-78
2023/02/28 10:30:43;;;;;;;0.30;0.30;;;0.60;99.90;;;;;;5073909;28;20459;-78
2023/02/28 10:33:19;;;;;;;0.30;0.30;;;0.70;99.90;;;;;;5073839;28;20434;-78
2023/02/28 10:35:48;;;;;;;0.50;0.50;;;0.80;99.90;;;;;;5073500;28;20897;-78
2023/02/28 10:38:18;;;;;;;0.53;0.50;;;0.90;99.90;;;;;;5073423;28;20489;-78
2023/02/28 10:40:45;;;;;;;1.37;0.80;;;1.00;99.90;;;;;;5073765;28;20434;-78
2023/02/28 10:43:24;;;;;;;0.30;0.30;;;0.90;99.90;;;;;;5073703;28;20453;-78
2023/02/28 10:45:58;;;;;;;2.83;1.90;;;0.90;99.90;;;;;;5073572;28;20445;-78
2023/02/28 10:48:32;;;;;;;1.27;0.57;;;1.00;99.90;;;;;;5073531;28;20471;-78
2023/02/28 10:51:01;;;;;;;0.40;0.40;;;1.20;99.90;;;;;;5073427;28;20501;-78
2023/02/28 10:53:38;;;;;;;0.37;0.37;;;1.30;99.90;;;;;;5073539;28;20441;-78
2023/02/28 10:56:07;;;;;;;0.33;0.33;;;1.30;99.90;;;;;;5073177;28;20913;-77
2023/02/28 10:58:48;;;;;;;0.30;0.30;;;1.30;99.90;;;;;;5072532;28;20550;-78
2023/02/28 11:01:16;;;;;;;0.30;0.30;;;1.40;99.90;;;;;;5073481;28;20429;-78
2023/02/28 11:03:43;;;;;;;1.87;0.77;;;1.50;99.90;;;;;;5074126;28;20457;-78
2023/02/28 11:06:17;;;;;;;0.40;0.40;;;1.40;99.90;;;;;;5073075;28;20955;-78
2023/02/28 11:08:50;;;;;;;0.67;0.67;;;1.60;99.90;;;;;;5073306;28;20436;-78
2023/02/28 11:11:17;;;;;;;1.53;0.60;;;1.80;99.90;;;;;;5073313;28;20434;-78
2023/02/28 11:13:46;;;;;;;0.50;0.50;;;1.70;99.90;;;;;;5073342;28;20433;-78
2023/02/28 11:16:15;;;;;;;0.73;0.73;;;1.70;99.90;;;;;;5073528;28;20514;-78
2023/02/28 11:18:47;;;;;;;0.47;0.47;;;1.80;99.90;;;;;;5072883;28;20851;-78
2023/02/28 11:21:21;;;;;;;0.30;0.20;;;1.70;99.90;;;;;;5072958;28;20901;-78
2023/02/28 11:23:51;;;;;;;0.50;0.50;;;1.70;99.90;;;;;;5073285;28;20435;-78
2023/02/28 11:26:37;;;;;;;0.30;0.30;;;1.60;99.90;;;;;;5072901;28;20793;-78
2023/02/28 11:29:12;;;;;;;0.30;0.30;;;1.80;99.90;;;;;;5073218;28;20460;-78
2023/02/28 11:31:38;;;;;;;1.13;1.13;;;2.00;99.90;;;;;;5073132;28;20432;-78
2023/02/28 11:34:25;;;;;;;0.60;0.60;;;2.10;99.90;;;;;;5073150;28;20446;-78
2023/02/28 11:36:56;;;;;;;0.40;0.40;;;2.30;99.90;;;;;;5073251;28;20461;-78
2023/02/28 11:39:24;;;;;;;0.50;0.40;;;2.20;99.90;;;;;;5072642;28;20872;-78
2023/02/28 11:42:05;;;;;;;0.40;0.40;;;2.10;99.90;;;;;;5073039;28;20566;-78
2023/02/28 11:44:46;;;;;;;0.40;0.40;;;2.00;99.90;;;;;;5073089;28;20433;-78
2023/02/28 11:47:22;;;;;;;0.50;0.40;;;1.80;99.90;;;;;;5072980;28;20832;-77
2023/02/28 11:50:01;;;;;;;0.60;0.60;;;1.80;99.90;;;;;;5073021;28;20433;-77
2023/02/28 11:52:40;;;;;;;1.70;1.40;;;1.90;99.90;;;;;;5072984;28;20433;-79
2023/02/28 11:55:16;;;;;;;0.70;0.70;;;2.00;99.90;;;;;;5072783;28;20436;-78
2023/02/28 11:58:10;;;;;;;0.30;0.30;;;2.00;99.90;;;;;;5072587;28;20447;-78
2023/02/28 12:00:51;;;;;;;0.50;0.50;;;2.10;99.90;;;;;;5062238;28;20503;-78
2023/02/28 12:03:28;;;;;;;2.80;0.80;;;2.30;99.90;;;;;;5072895;28;20421;-78
2023/02/28 12:06:05;;;;;;;0.53;0.53;;;2.60;99.90;;;;;;5073086;28;20440;-78
2023/02/28 12:08:48;;;;;;;0.40;0.40;;;2.60;99.90;;;;;;5072821;28;20460;-78
2023/02/28 12:11:27;;;;;;;0.30;0.20;;;2.70;99.90;;;;;;5074945;28;20905;-78
2023/02/28 12:14:16;;;;;;;0.50;0.50;;;2.90;99.90;;;;;;5076502;28;20464;-78
2023/02/28 12:16:56;;;;;;;1.57;0.50;;;3.00;99.90;;;;;;5076324;28;20432;-78
2023/02/28 12:19:30;;;;;;;0.30;0.30;;;3.00;99.90;;;;;;5076384;28;20473;-78
2023/02/28 12:22:12;;;;;;;1.33;1.00;;;3.00;99.90;;;;;;5076089;28;20422;-77
2023/02/28 12:24:55;;;;;;;1.03;1.03;;;3.20;99.90;;;;;;5076298;28;20442;-78
2023/02/28 12:27:25;;;;;;;1.83;0.43;;;3.60;99.90;;;;;;5076180;28;20472;-78
2023/02/28 12:29:57;;;;;;;0.40;0.40;;;3.80;99.90;;;;;;5076195;28;20422;-78
2023/02/28 12:32:30;;;;;;;0.37;0.37;;;3.70;99.90;;;;;;5076139;28;20433;-77
2023/02/28 12:35:03;;;;;;;1.17;0.60;;;3.40;99.90;;;;;;5076176;28;20821;-80
2023/02/28 12:37:35;;;;;;;1.77;0.57;;;3.20;99.90;;;;;;5075775;28;20484;-79
2023/02/28 12:40:08;;;;;;;0.50;0.50;;;3.20;99.90;;;;;;5075983;28;20469;-78
2023/02/28 12:42:40;;;;;;;0.80;0.80;;;3.20;99.90;;;;;;5075636;28;20932;-77
2023/02/28 12:45:13;;;;;;;1.07;0.40;;;3.20;99.90;;;;;;5075646;28;20459;-77
2023/02/28 12:47:43;;;;;;;0.50;0.50;;;3.20;99.90;;;;;;5075546;28;20472;-78
2023/02/28 12:50:12;;;;;;;3.70;1.67;;;3.20;99.90;;;;;;5075801;28;20445;-78
2023/02/28 12:52:47;;;;;;;0.40;0.30;;;3.00;99.90;;;;;;5075712;28;20929;-78
2023/02/28 12:55:23;;;;;;;0.83;0.83;;;2.90;99.90;;;;;;5075733;28;20433;-78
2023/02/28 12:57:58;;;;;;;0.70;0.70;;;2.90;99.90;;;;;;5075307;28;20470;-77
2023/02/28 13:00:33;;;;;;;0.53;0.53;;;2.90;99.90;;;;;;5075830;28;20457;-77
2023/02/28 13:03:48;;;;;;;0.90;0.60;;;2.90;99.90;;;;;;5075590;28;20429;-78
2023/02/28 13:06:35;;;;;;;0.30;0.20;;;2.90;99.90;;;;;;5013046;28;20481;-77